Time;durP1;ratioP1;P1;durP2;ratioP2;P2;SDS_P1;SDS_P2;PMS_P1;PMS_P2;Temp;Humidity;BMP_temperature;BMP_pressure;BME280_temperature;BME280_humidity;BME280_pressure;Samples;Min_cycle;Max_cycle;Signal;HPM_P1;HPM_P2
2022/10/10 00:01:42;;;;;;;;;;;;;;;;;;4941658;29;44658;-80
2022/10/10 00:04:09;;;;;;;;;;;;;;;;;;4946943;29;44458;-79
2022/10/10 00:06:36;;;;;;;;;;;;;;;;;;4947523;29;45831;-80
2022/10/10 00:09:03;;;;;;;;;;;;;;;;;;4946798;28;45068;-79
2022/10/10 00:11:30;;;;;;;;;;;;;;;;;;4945688;29;43682;-80
2022/10/10 00:13:57;;;;;;;;;;;;;;;;;;4942194;29;43700;-79
2022/10/10 00:16:24;;;;;;;;;;;;;;;;;;4938875;29;45705;-80
2022/10/10 00:18:51;;;;;;;;;;;;;;;;;;4939898;28;45129;-80
2022/10/10 00:21:18;;;;;;;;;;;;;;;;;;4939184;29;43847;-80
2022/10/10 00:23:47;;;;;;;;;;;;;;;;;;4941039;29;44345;-80
2022/10/10 00:26:15;;;;;;;;;;;;;;;;;;4938268;29;43928;-81
2022/10/10 00:28:45;;;;;;;;;;;;;;;;;;4938665;29;45821;-80
2022/10/10 00:31:12;;;;;;;;;;;;;;;;;;4938087;29;43487;-80
2022/10/10 00:33:39;;;;;;;;;;;;;;;;;;4938332;29;44508;-80
2022/10/10 00:36:06;;;;;;;;;;;;;;;;;;4939461;29;45836;-79
2022/10/10 00:38:33;;;;;;;;;;;;;;;;;;4938554;29;45113;-81
2022/10/10 00:41:00;;;;;;;;;;;;;;;;;;4937222;29;43908;-80
2022/10/10 00:43:30;;;;;;;;;;;;;;;;;;4941398;28;44558;-80
2022/10/10 00:45:57;;;;;;;;;;;;;;;;;;4939202;28;45800;-80
2022/10/10 00:48:24;;;;;;;;;;;;;;;;;;4934707;29;45092;-80
2022/10/10 00:50:50;;;;;;;;;;;;;;;;;;4937817;29;43733;-79
2022/10/10 00:53:18;;;;;;;;;;;;;;;;;;4938762;29;44360;-79
2022/10/10 00:55:45;;;;;;;;;;;;;;;;;;4938622;29;45161;-80
2022/10/10 00:58:12;;;;;;;;;;;;;;;;;;4939586;29;43752;-80
2022/10/10 01:00:38;;;;;;;;;;;;;;;;;;4940256;29;44631;-79
2022/10/10 01:03:05;;;;;;;;;;;;;;;;;;4938155;28;44386;-81
2022/10/10 01:05:34;;;;;;;;;;;;;;;;;;4940323;29;45357;-79
2022/10/10 01:08:01;;;;;;;;;;;;;;;;;;4939577;29;45259;-79
2022/10/10 01:10:28;;;;;;;;;;;;;;;;;;4939621;29;43688;-80
2022/10/10 01:12:55;;;;;;;;;;;;;;;;;;4938090;29;43968;-82
2022/10/10 01:15:25;;;;;;;;;;;;;;;;;;4938950;29;44421;-80
2022/10/10 01:17:55;;;;;;;;;;;;;;;;;;4938010;29;44897;-80
2022/10/10 01:20:22;;;;;;;;;;;;;;;;;;4940236;29;43722;-80
2022/10/10 01:22:49;;;;;;;;;;;;;;;;;;4941767;29;45058;-79
2022/10/10 01:25:16;;;;;;;;;;;;;;;;;;4940763;28;44784;-80
2022/10/10 01:27:43;;;;;;;;;;;;;;;;;;4942101;29;45000;-80
2022/10/10 01:30:10;;;;;;;;;;;;;;;;;;4942868;29;43733;-80
2022/10/10 01:32:40;;;;;;;;;;;;;;;;;;4941828;29;43516;-79
2022/10/10 01:35:07;;;;;;;;;;;;;;;;;;4942421;29;45607;-79
2022/10/10 01:37:34;;;;;;;;;;;;;;;;;;4940041;29;44168;-81
2022/10/10 01:40:01;;;;;;;;;;;;;;;;;;4940755;29;43661;-81
2022/10/10 01:42:28;;;;;;;;;;;;;;;;;;4939123;29;44454;-79
2022/10/10 01:44:55;;;;;;;;;;;;;;;;;;4939357;29;45750;-81
2022/10/10 01:47:22;;;;;;;;;;;;;;;;;;4937295;29;45083;-82
2022/10/10 01:49:49;;;;;;;;;;;;;;;;;;4938886;29;44668;-79
2022/10/10 01:52:17;;;;;;;;;;;;;;;;;;4939121;29;43521;-80
2022/10/10 01:54:44;;;;;;;;;;;;;;;;;;4939016;29;47073;-80
2022/10/10 01:57:11;;;;;;;;;;;;;;;;;;4937259;29;44010;-81
2022/10/10 01:59:38;;;;;;;;;;;;;;;;;;4938553;29;43617;-81
2022/10/10 02:02:05;;;;;;;;;;;;;;;;;;4938920;29;45295;-80
2022/10/10 02:04:39;;;;;;;;;;;;;;;;;;4937110;29;46042;-82
2022/10/10 02:07:06;;;;;;;;;;;;;;;;;;4938056;29;43696;-79
2022/10/10 02:09:36;;;;;;;;;;;;;;;;;;4938119;29;40910;-80
2022/10/10 02:12:03;;;;;;;;;;;;;;;;;;4935612;29;43728;-80
2022/10/10 02:14:30;;;;;;;;;;;;;;;;;;4938226;29;45758;-80
2022/10/10 02:16:57;;;;;;;;;;;;;;;;;;4937552;29;45112;-81
2022/10/10 02:19:24;;;;;;;;;;;;;;;;;;4938403;28;44550;-81
2022/10/10 02:21:51;;;;;;;;;;;;;;;;;;4938572;29;43462;-80
2022/10/10 02:24:19;;;;;;;;;;;;;;;;;;4939524;28;43586;-80
2022/10/10 02:26:46;;;;;;;;;;;;;;;;;;4940400;29;45270;-80
2022/10/10 02:29:16;;;;;;;;;;;;;;;;;;4939556;29;43649;-81
2022/10/10 02:31:43;;;;;;;;;;;;;;;;;;4938869;28;44467;-82
2022/10/10 02:34:10;;;;;;;;;;;;;;;;;;4937622;29;45842;-81
2022/10/10 02:36:37;;;;;;;;;;;;;;;;;;4938405;29;46197;-80
2022/10/10 02:39:04;;;;;;;;;;;;;;;;;;4938065;29;44821;-80
2022/10/10 02:41:31;;;;;;;;;;;;;;;;;;4938920;29;44629;-80
2022/10/10 02:43:58;;;;;;;;;;;;;;;;;;4937691;29;45826;-80
2022/10/10 02:46:25;;;;;;;;;;;;;;;;;;4937976;28;45011;-80
2022/10/10 02:48:54;;;;;;;;;;;;;;;;;;4937928;29;42317;-81
2022/10/10 02:51:21;;;;;;;;;;;;;;;;;;4938154;29;45819;-80
2022/10/10 02:53:54;;;;;;;;;;;;;;;;;;4938723;29;45610;-81
2022/10/10 02:56:21;;;;;;;;;;;;;;;;;;4937390;29;46927;-80
2022/10/10 02:58:48;;;;;;;;;;;;;;;;;;4939350;29;43729;-80
2022/10/10 03:01:15;;;;;;;;;;;;;;;;;;4939375;28;45161;-80
2022/10/10 03:03:42;;;;;;;;;;;;;;;;;;4939750;29;45586;-80
2022/10/10 03:06:09;;;;;;;;;;;;;;;;;;4937531;28;45107;-81
2022/10/10 03:08:36;;;;;;;;;;;;;;;;;;4940971;28;43733;-80
2022/10/10 03:11:03;;;;;;;;;;;;;;;;;;4942149;29;45058;-80
2022/10/10 03:13:30;;;;;;;;;;;;;;;;;;4942389;29;45777;-80
2022/10/10 03:15:56;;;;;;;;;;;;;;;;;;4941472;29;44975;-81
2022/10/10 03:18:25;;;;;;;;;;;;;;;;;;4942260;29;43360;-80
2022/10/10 03:20:52;;;;;;;;;;;;;;;;;;4942674;29;43396;-81
2022/10/10 03:23:19;;;;;;;;;;;;;;;;;;4941500;29;45753;-80
2022/10/10 03:25:46;;;;;;;;;;;;;;;;;;4939637;29;45134;-80
2022/10/10 03:28:13;;;;;;;;;;;;;;;;;;4941448;29;43527;-81
2022/10/10 03:30:40;;;;;;;;;;;;;;;;;;4941520;29;44534;-80
2022/10/10 03:33:07;;;;;;;;;;;;;;;;;;4942124;29;45758;-80
2022/10/10 03:35:34;;;;;;;;;;;;;;;;;;4942074;29;45014;-80
2022/10/10 03:38:00;;;;;;;;;;;;;;;;;;4940083;29;43721;-80
2022/10/10 03:40:27;;;;;;;;;;;;;;;;;;4941253;29;45173;-80
2022/10/10 03:42:54;;;;;;;;;;;;;;;;;;4942018;29;45856;-81
2022/10/10 03:45:21;;;;;;;;;;;;;;;;;;4939946;29;43900;-81
2022/10/10 03:47:48;;;;;;;;;;;;;;;;;;4940926;29;45079;-80
2022/10/10 03:50:15;;;;;;;;;;;;;;;;;;4940937;29;46140;-80
2022/10/10 03:52:42;;;;;;;;;;;;;;;;;;4939479;29;45703;-80
2022/10/10 03:55:09;;;;;;;;;;;;;;;;;;4939399;29;45101;-80
2022/10/10 03:57:36;;;;;;;;;;;;;;;;;;4941138;29;44705;-80
2022/10/10 04:00:03;;;;;;;;;;;;;;;;;;4940469;29;43579;-81
2022/10/10 04:02:30;;;;;;;;;;;;;;;;;;4939788;29;45769;-80
2022/10/10 04:04:57;;;;;;;;;;;;;;;;;;4940187;29;45117;-81
2022/10/10 04:07:24;;;;;;;;;;;;;;;;;;4939709;29;43664;-80
2022/10/10 04:09:51;;;;;;;;;;;;;;;;;;4938149;28;44855;-79
2022/10/10 04:12:18;;;;;;;;;;;;;;;;;;4940604;28;45637;-80
2022/10/10 04:14:45;;;;;;;;;;;;;;;;;;4941435;29;45231;-80
2022/10/10 04:17:12;;;;;;;;;;;;;;;;;;4938621;28;44726;-80
2022/10/10 04:19:39;;;;;;;;;;;;;;;;;;4939729;29;45104;-80
2022/10/10 04:22:06;;;;;;;;;;;;;;;;;;4937911;29;47045;-80
2022/10/10 04:24:36;;;;;;;;;;;;;;;;;;4941013;29;43301;-81
2022/10/10 04:27:03;;;;;;;;;;;;;;;;;;4941402;29;43194;-81
2022/10/10 04:29:30;;;;;;;;;;;;;;;;;;4941438;28;43331;-80
2022/10/10 04:31:57;;;;;;;;;;;;;;;;;;4940246;29;45288;-80
2022/10/10 04:34:24;;;;;;;;;;;;;;;;;;4940760;28;45327;-80
2022/10/10 04:36:51;;;;;;;;;;;;;;;;;;4939765;28;41985;-80
2022/10/10 04:39:18;;;;;;;;;;;;;;;;;;4941698;29;44792;-81
2022/10/10 04:41:48;;;;;;;;;;;;;;;;;;4941247;29;45809;-80
2022/10/10 04:44:15;;;;;;;;;;;;;;;;;;4941370;29;45052;-80
2022/10/10 04:46:42;;;;;;;;;;;;;;;;;;4941924;29;43581;-80
2022/10/10 04:49:09;;;;;;;;;;;;;;;;;;4940996;29;44877;-80
2022/10/10 04:51:36;;;;;;;;;;;;;;;;;;4940800;28;45686;-80
2022/10/10 04:54:03;;;;;;;;;;;;;;;;;;4941501;29;45086;-80
2022/10/10 04:56:30;;;;;;;;;;;;;;;;;;4941641;29;44732;-80
2022/10/10 04:58:57;;;;;;;;;;;;;;;;;;4941072;29;44871;-81
2022/10/10 05:01:24;;;;;;;;;;;;;;;;;;4938207;29;45748;-81
2022/10/10 05:03:51;;;;;;;;;;;;;;;;;;4940616;29;45781;-81
2022/10/10 05:06:18;;;;;;;;;;;;;;;;;;4941599;29;43629;-80
2022/10/10 05:08:45;;;;;;;;;;;;;;;;;;4935925;29;44616;-80
2022/10/10 05:11:12;;;;;;;;;;;;;;;;;;4935218;28;45689;-80
2022/10/10 05:13:39;;;;;;;;;;;;;;;;;;4941527;29;45160;-80
2022/10/10 05:16:06;;;;;;;;;;;;;;;;;;4945987;28;43683;-81
2022/10/10 05:18:36;;;;;;;;;;;;;;;;;;4941085;29;42578;-80
2022/10/10 05:21:03;;;;;;;;;;;;;;;;;;4940131;29;45728;-80
2022/10/10 05:23:30;;;;;;;;;;;;;;;;;;4940223;29;46148;-80
2022/10/10 05:25:57;;;;;;;;;;;;;;;;;;4939812;28;43603;-80
2022/10/10 05:28:24;;;;;;;;;;;;;;;;;;4940975;29;45016;-80
2022/10/10 05:30:54;;;;;;;;;;;;;;;;;;4932117;29;45899;-80
2022/10/10 05:33:22;;;;;;;;;;;;;;;;;;4940621;29;43292;-80
2022/10/10 05:35:49;;;;;;;;;;;;;;;;;;4940900;29;42154;-80
2022/10/10 05:38:19;;;;;;;;;;;;;;;;;;4941487;29;44784;-80
2022/10/10 05:40:46;;;;;;;;;;;;;;;;;;4940043;29;43222;-81
2022/10/10 05:43:13;;;;;;;;;;;;;;;;;;4939109;28;46181;-81
2022/10/10 05:45:43;;;;;;;;;;;;;;;;;;4940484;29;40864;-80
2022/10/10 05:48:11;;;;;;;;;;;;;;;;;;4939773;29;43033;-80
2022/10/10 05:50:38;;;;;;;;;;;;;;;;;;4942703;28;47217;-80
2022/10/10 05:53:22;;;;;;;;;;;;;;;;;;5095816;28;19931;-77
2022/10/10 05:55:49;;;;;;;;;;;;;;;;;;5085727;28;46447;-78
2022/10/10 05:58:16;;;;;;;;;;;;;;;;;;5098430;28;44639;-77
2022/10/10 06:00:43;;;;;;;;;;;;;;;;;;5095227;27;45853;-80
2022/10/10 06:03:12;;;;;;;;;;;;;;;;;;5092709;28;43876;-79
2022/10/10 06:05:39;;;;;;;;;;;;;;;;;;5089103;28;43855;-79
2022/10/10 06:08:06;;;;;;;;;;;;;;;;;;5098822;28;43775;-79
2022/10/10 06:10:37;;;;;;;;;;;;;;;;;;5091834;27;44464;-79
2022/10/10 06:13:04;;;;;;;;;;;;;;;;;;5095178;28;44675;-77
2022/10/10 06:15:31;;;;;;;;;;;;;;;;;;5092303;28;44091;-79
2022/10/10 06:17:58;;;;;;;;;;;;;;;;;;5086323;28;43758;-79
2022/10/10 06:20:25;;;;;;;;;;;;;;;;;;5091818;28;43737;-79
2022/10/10 06:22:52;;;;;;;;;;;;;;;;;;5091293;28;44650;-78
2022/10/10 06:25:19;;;;;;;;;;;;;;;;;;5088216;28;44068;-79
2022/10/10 06:28:05;;;;;;;;;;;;;;;;;;5093793;28;43508;-78
2022/10/10 06:30:33;;;;;;;;;;;;;;;;;;5087404;28;44519;-78
2022/10/10 06:33:03;;;;;;;;;;;;;;;;;;5085358;28;45920;-79
2022/10/10 06:35:30;;;;;;;;;;;;;;;;;;5093909;28;44057;-78
2022/10/10 06:37:58;;;;;;;;;;;;;;;;;;5088028;28;43563;-79
2022/10/10 06:40:27;;;;;;;;;;;;;;;;;;5088236;28;45958;-78
2022/10/10 06:42:54;;;;;;;;;;;;;;;;;;5088591;28;44236;-78
2022/10/10 06:45:23;;;;;;;;;;;;;;;;;;5092876;28;43924;-79
2022/10/10 06:47:50;;;;;;;;;;;;;;;;;;5092480;28;42387;-79
2022/10/10 06:50:17;;;;;;;;;;;;;;;;;;5088609;28;45812;-79
2022/10/10 06:52:44;;;;;;;;;;;;;;;;;;5097821;28;43662;-78
2022/10/10 06:55:11;;;;;;;;;;;;;;;;;;5091708;28;45120;-78
2022/10/10 06:57:38;;;;;;;;;;;;;;;;;;5087032;28;43900;-79
2022/10/10 07:00:05;;;;;;;;;;;;;;;;;;5087582;28;44833;-79
2022/10/10 07:02:32;;;;;;;;;;;;;;;;;;5088609;28;44649;-78
2022/10/10 07:04:59;;;;;;;;;;;;;;;;;;5075277;28;45302;-78
2022/10/10 07:07:27;;;;;;;;;;;;;;;;;;5076192;28;43713;-79
2022/10/10 07:09:54;;;;;;;;;;;;;;;;;;5077077;28;45386;-78
2022/10/10 07:12:21;;;;;;;;;;;;;;;;;;5072240;28;44691;-79
2022/10/10 07:14:48;;;;;;;;;;;;;;;;;;5078561;28;44364;-78
2022/10/10 07:17:15;;;;;;;;;;;;;;;;;;5079363;28;45024;-79
2022/10/10 07:19:42;;;;;;;;;;;;;;;;;;5077501;28;46383;-78
2022/10/10 07:22:09;;;;;;;;;;;;;;;;;;5073583;28;41946;-79
2022/10/10 07:24:36;;;;;;;;;;;;;;;;;;5074807;28;45118;-79
2022/10/10 07:27:03;;;;;;;;;;;;;;;;;;5071896;28;42228;-77
2022/10/10 07:29:34;;;;;;;;;;;;;;;;;;5073265;28;45768;-78
2022/10/10 07:32:01;;;;;;;;;;;;;;;;;;5072428;28;45824;-78
2022/10/10 07:34:28;;;;;;;;;;;;;;;;;;5070943;28;43204;-78
2022/10/10 07:36:55;;;;;;;;;;;;;;;;;;5075769;28;44722;-78
2022/10/10 07:39:22;;;;;;;;;;;;;;;;;;5077716;28;45972;-78
2022/10/10 07:41:49;;;;;;;;;;;;;;;;;;5072850;28;43758;-78
2022/10/10 07:44:16;;;;;;;;;;;;;;;;;;5073453;28;45150;-78
2022/10/10 07:46:43;;;;;;;;;;;;;;;;;;5075435;28;44467;-79
2022/10/10 07:49:10;;;;;;;;;;;;;;;;;;5076502;28;44923;-78
2022/10/10 07:51:37;;;;;;;;;;;;;;;;;;5074496;28;44632;-78
2022/10/10 07:54:05;;;;;;;;;;;;;;;;;;5078374;28;42895;-79
2022/10/10 07:56:32;;;;;;;;;;;;;;;;;;5081050;28;43405;-77
2022/10/10 07:58:59;;;;;;;;;;;;;;;;;;5075716;28;44789;-78
2022/10/10 08:01:26;;;;;;;;;;;;;;;;;;5073529;28;43675;-78
2022/10/10 08:03:53;;;;;;;;;;;;;;;;;;5070648;28;45178;-78
2022/10/10 08:06:20;;;;;;;;;;;;;;;;;;5075768;28;43552;-78
2022/10/10 08:08:48;;;;;;;;;;;;;;;;;;5076212;28;44737;-79
2022/10/10 08:11:17;;;;;;;;;;;;;;;;;;5079429;28;42868;-78
2022/10/10 08:13:44;;;;;;;;;;;;;;;;;;5075442;28;44065;-78
2022/10/10 08:16:11;;;;;;;;;;;;;;;;;;5074569;28;43661;-77
2022/10/10 08:18:38;;;;;;;;;;;;;;;;;;5074228;28;44849;-78
2022/10/10 08:21:05;;;;;;;;;;;;;;;;;;5077414;28;44620;-77
2022/10/10 08:23:32;;;;;;;;;;;;;;;;;;5077118;28;43397;-77
2022/10/10 08:25:59;;;;;;;;;;;;;;;;;;5075141;28;43666;-78
2022/10/10 08:28:26;;;;;;;;;;;;;;;;;;5074153;28;45443;-78
2022/10/10 08:30:53;;;;;;;;;;;;;;;;;;5077103;28;44215;-77
2022/10/10 08:33:20;;;;;;;;;;;;;;;;;;5078334;28;44056;-77
2022/10/10 08:35:47;;;;;;;;;;;;;;;;;;5073095;28;43469;-78
2022/10/10 08:38:14;;;;;;;;;;;;;;;;;;5076629;28;44860;-77
2022/10/10 08:40:41;;;;;;;;;;;;;;;;;;5079308;28;45643;-78
2022/10/10 08:43:08;;;;;;;;;;;;;;;;;;5076790;28;45177;-76
2022/10/10 08:45:35;;;;;;;;;;;;;;;;;;5071084;28;44732;-77
2022/10/10 08:48:02;;;;;;;;;;;;;;;;;;5084425;28;46712;-77
2022/10/10 08:50:29;;;;;;;;;;;;;;;;;;5079635;28;44881;-77
2022/10/10 08:52:56;;;;;;;;;;;;;;;;;;5073507;28;42969;-78
2022/10/10 08:55:23;;;;;;;;;;;;;;;;;;5069784;28;44903;-78
2022/10/10 08:57:50;;;;;;;;;;;;;;;;;;5084057;28;47106;-77
2022/10/10 09:00:17;;;;;;;;;;;;;;;;;;5082831;28;44554;-79
2022/10/10 09:02:44;;;;;;;;;;;;;;;;;;5076928;28;43441;-77
2022/10/10 09:05:26;;;;;;;;;;;;;;;;;;5079319;28;43333;-78
2022/10/10 09:07:53;;;;;;;;;;;;;;;;;;5071529;28;45067;-78
2022/10/10 09:10:20;;;;;;;;;;;;;;;;;;5075533;28;44068;-78
2022/10/10 09:12:47;;;;;;;;;;;;;;;;;;5072924;28;43860;-75
2022/10/10 09:15:14;;;;;;;;;;;;;;;;;;5078274;28;44671;-78
2022/10/10 09:17:41;;;;;;;;;;;;;;;;;;5078904;28;45208;-77
2022/10/10 09:20:10;;;;;;;;;;;;;;;;;;5076515;28;44761;-77
2022/10/10 09:22:37;;;;;;;;;;;;;;;;;;5078232;28;44312;-78
2022/10/10 09:25:04;;;;;;;;;;;;;;;;;;5071062;28;44510;-77
2022/10/10 09:27:31;;;;;;;;;;;;;;;;;;5076829;28;44735;-75
2022/10/10 09:29:58;;;;;;;;;;;;;;;;;;5079523;28;43123;-77
2022/10/10 09:32:24;;;;;;;;;;;;;;;;;;5072701;28;41699;-77
2022/10/10 09:34:51;;;;;;;;;;;;;;;;;;5077362;28;43727;-77
2022/10/10 09:37:18;;;;;;;;;;;;;;;;;;5077099;28;44928;-78
2022/10/10 09:40:08;;;;;;;;;;;;;;;;;;5075577;28;19956;-77
2022/10/10 09:42:35;;;;;;;;;;;;;;;;;;5074938;28;44086;-78
2022/10/10 09:45:02;;;;;;;;;;;;;;;;;;5072384;28;44423;-78
2022/10/10 09:47:29;;;;;;;;;;;;;;;;;;5074612;28;45987;-77
2022/10/10 09:49:57;;;;;;;;;;;;;;;;;;5074545;28;44796;-77
2022/10/10 09:52:24;;;;;;;;;;;;;;;;;;5069261;28;43996;-78
2022/10/10 09:54:51;;;;;;;;;;;;;;;;;;5069422;28;43705;-77
2022/10/10 09:57:18;;;;;;;;;;;;;;;;;;5077625;28;46134;-77
2022/10/10 09:59:45;;;;;;;;;;;;;;;;;;5072917;28;43644;-77
2022/10/10 10:02:12;;;;;;;;;;;;;;;;;;5068348;28;42620;-77
2022/10/10 10:04:39;;;;;;;;;;;;;;;;;;5077960;28;43667;-77
2022/10/10 10:07:07;;;;;;;;;;;;;;;;;;5073422;28;44093;-77
2022/10/10 10:09:34;;;;;;;;;;;;;;;;;;5073178;28;45499;-77
2022/10/10 10:12:01;;;;;;;;;;;;;;;;;;5073010;28;45599;-77
2022/10/10 10:14:30;;;;;;;;;;;;;;;;;;5074283;28;43842;-77
2022/10/10 10:16:57;;;;;;;;;;;;;;;;;;5070362;28;45994;-78
2022/10/10 10:19:24;;;;;;;;;;;;;;;;;;5072493;28;44444;-78
2022/10/10 10:21:51;;;;;;;;;;;;;;;;;;5076604;28;43793;-77
2022/10/10 10:24:18;;;;;;;;;;;;;;;;;;5076399;28;43680;-77
2022/10/10 10:26:45;;;;;;;;;;;;;;;;;;5075312;28;43707;-77
2022/10/10 10:29:14;;;;;;;;;;;;;;;;;;5073183;28;43418;-77
2022/10/10 10:31:41;;;;;;;;;;;;;;;;;;5072318;28;44221;-76
2022/10/10 10:34:10;;;;;;;;;;;;;;;;;;5074102;28;44209;-77
2022/10/10 10:36:37;;;;;;;;;;;;;;;;;;5078232;28;45919;-76
2022/10/10 10:39:04;;;;;;;;;;;;;;;;;;5071264;28;43012;-76
2022/10/10 10:41:31;;;;;;;;;;;;;;;;;;5077280;28;44121;-76
2022/10/10 10:43:58;;;;;;;;;;;;;;;;;;5072596;28;43892;-76
2022/10/10 10:46:26;;;;;;;;;;;;;;;;;;5075009;28;45967;-76
2022/10/10 10:48:53;;;;;;;;;;;;;;;;;;5073393;28;45866;-77
2022/10/10 10:51:23;;;;;;;;;;;;;;;;;;5074452;28;44029;-76
2022/10/10 10:53:50;;;;;;;;;;;;;;;;;;5070832;28;43954;-76
2022/10/10 10:56:17;;;;;;;;;;;;;;;;;;5077305;28;44854;-76
2022/10/10 10:58:44;;;;;;;;;;;;;;;;;;5076822;28;44707;-76
2022/10/10 11:01:31;;;;;;;;;;;;;;;;;;5083102;28;19964;-76
2022/10/10 11:04:18;;;;;;;;;;;;;;;;;;5081958;28;19956;-77
2022/10/10 11:07:05;;;;;;;;;;;;;;;;;;5082966;28;20505;-77
2022/10/10 11:09:44;;;;;;;;;;;;;;;;;;5072100;28;44703;-78
2022/10/10 11:12:16;;;;;;;;;;;;;;;;;;5076912;28;44037;-78
2022/10/10 11:14:46;;;;;;;;;;;;;;;;;;5078701;28;42509;-77
2022/10/10 11:17:13;;;;;;;;;;;;;;;;;;5079310;28;47671;-77
2022/10/10 11:19:40;;;;;;;;;;;;;;;;;;5080305;28;43052;-77
2022/10/10 11:22:10;;;;;;;;;;;;;;;;;;5071234;28;43711;-77
2022/10/10 11:24:37;;;;;;;;;;;;;;;;;;5075835;28;44858;-77
2022/10/10 11:27:04;;;;;;;;;;;;;;;;;;5071480;28;44276;-79
2022/10/10 11:29:33;;;;;;;;;;;;;;;;;;5071672;28;45920;-77
2022/10/10 11:32:00;;;;;;;;;;;;;;;;;;5078096;28;44351;-77
2022/10/10 11:34:27;;;;;;;;;;;;;;;;;;5076375;28;43798;-77
2022/10/10 11:36:54;;;;;;;;;;;;;;;;;;5077548;28;45908;-78
2022/10/10 11:39:21;;;;;;;;;;;;;;;;;;5072403;28;44629;-78
2022/10/10 11:41:48;;;;;;;;;;;;;;;;;;5075234;28;44073;-77
2022/10/10 11:44:15;;;;;;;;;;;;;;;;;;5076986;28;43573;-78
2022/10/10 11:46:42;;;;;;;;;;;;;;;;;;5074995;28;45503;-78
2022/10/10 11:49:09;;;;;;;;;;;;;;;;;;5072182;28;46053;-77
2022/10/10 11:51:36;;;;;;;;;;;;;;;;;;5083404;28;42533;-77
2022/10/10 11:54:03;;;;;;;;;;;;;;;;;;5076742;28;43537;-77
2022/10/10 11:56:30;;;;;;;;;;;;;;;;;;5076670;28;45846;-77
2022/10/10 11:58:57;;;;;;;;;;;;;;;;;;5069981;28;43888;-77
2022/10/10 12:01:24;;;;;;;;;;;;;;;;;;5075960;28;45042;-77
2022/10/10 12:03:51;;;;;;;;;;;;;;;;;;5074209;28;42341;-77
2022/10/10 12:06:18;;;;;;;;;;;;;;;;;;5077323;28;46204;-77
2022/10/10 12:08:45;;;;;;;;;;;;;;;;;;5068714;28;42657;-77
2022/10/10 12:11:12;;;;;;;;;;;;;;;;;;5078915;28;45157;-77
2022/10/10 12:13:39;;;;;;;;;;;;;;;;;;5076630;28;44766;-78
2022/10/10 12:16:09;;;;;;;;;;;;;;;;;;5074627;28;46266;-77
2022/10/10 12:18:36;;;;;;;;;;;;;;;;;;5079685;28;43521;-78
2022/10/10 12:21:03;;;;;;;;;;;;;;;;;;5078872;28;42548;-78
2022/10/10 12:23:30;;;;;;;;;;;;;;;;;;5079987;28;43669;-78
2022/10/10 12:25:57;;;;;;;;;;;;;;;;;;5075426;28;45694;-78
2022/10/10 12:28:25;;;;;;;;;;;;;;;;;;5072306;28;43643;-78
2022/10/10 12:30:52;;;;;;;;;;;;;;;;;;5076203;28;43736;-78
2022/10/10 12:33:23;;;;;;;;;;;;;;;;;;5072945;28;43381;-78
2022/10/10 12:35:50;;;;;;;;;;;;;;;;;;5081126;28;42709;-78
2022/10/10 12:38:17;;;;;;;;;;;;;;;;;;5072745;28;43415;-78
2022/10/10 12:40:44;;;;;;;;;;;;;;;;;;5077205;28;43885;-78
2022/10/10 12:43:11;;;;;;;;;;;;;;;;;;5074019;28;43661;-78
2022/10/10 12:45:38;;;;;;;;;;;;;;;;;;5074334;28;45890;-78
2022/10/10 12:48:06;;;;;;;;;;;;;;;;;;5074536;28;45671;-78
2022/10/10 12:50:33;;;;;;;;;;;;;;;;;;5074950;28;43927;-77
2022/10/10 12:53:00;;;;;;;;;;;;;;;;;;5073227;28;43358;-77
2022/10/10 12:55:27;;;;;;;;;;;;;;;;;;5084055;28;44706;-77
2022/10/10 12:57:54;;;;;;;;;;;;;;;;;;5070784;28;44224;-77
2022/10/10 13:00:21;;;;;;;;;;;;;;;;;;5087073;28;43731;-77
2022/10/10 13:02:48;;;;;;;;;;;;;;;;;;5070614;28;43685;-77
2022/10/10 13:05:17;;;;;;;;;;;;;;;;;;5074555;28;43145;-77
2022/10/10 13:07:44;;;;;;;;;;;;;;;;;;5072033;28;45016;-77
2022/10/10 13:10:11;;;;;;;;;;;;;;;;;;5070456;28;44078;-77
2022/10/10 13:12:38;;;;;;;;;;;;;;;;;;5069112;28;43669;-77
2022/10/10 13:15:05;;;;;;;;;;;;;;;;;;5075677;28;44730;-78
2022/10/10 13:17:32;;;;;;;;;;;;;;;;;;5073626;28;44594;-77
2022/10/10 13:19:59;;;;;;;;;;;;;;;;;;5074157;28;44424;-78
2022/10/10 13:22:26;;;;;;;;;;;;;;;;;;5072980;28;43557;-77
2022/10/10 13:24:53;;;;;;;;;;;;;;;;;;5070224;28;45142;-78
2022/10/10 13:27:20;;;;;;;;;;;;;;;;;;5073826;28;43469;-77
2022/10/10 13:29:47;;;;;;;;;;;;;;;;;;5073987;28;45051;-77
2022/10/10 13:32:14;;;;;;;;;;;;;;;;;;5076504;28;44706;-77
2022/10/10 13:34:41;;;;;;;;;;;;;;;;;;5070069;28;44856;-78
2022/10/10 13:37:08;;;;;;;;;;;;;;;;;;5079489;28;44694;-77
2022/10/10 13:39:35;;;;;;;;;;;;;;;;;;5073329;28;45181;-77
2022/10/10 13:42:02;;;;;;;;;;;;;;;;;;5073351;28;44735;-77
2022/10/10 13:44:29;;;;;;;;;;;;;;;;;;5073380;28;45802;-78
2022/10/10 13:46:56;;;;;;;;;;;;;;;;;;5072551;28;43165;-78
2022/10/10 13:49:23;;;;;;;;;;;;;;;;;;5076426;28;44064;-78
2022/10/10 13:51:54;;;;;;;;;;;;;;;;;;5072789;28;44562;-78
2022/10/10 13:54:21;;;;;;;;;;;;;;;;;;5073932;28;44438;-77
2022/10/10 13:56:48;;;;;;;;;;;;;;;;;;5082082;28;44211;-77
2022/10/10 13:59:15;;;;;;;;;;;;;;;;;;5072687;28;44099;-78
2022/10/10 14:01:42;;;;;;;;;;;;;;;;;;5072373;28;43828;-77
2022/10/10 14:04:09;;;;;;;;;;;;;;;;;;5075969;28;44878;-79
2022/10/10 14:06:36;;;;;;;;;;;;;;;;;;5075804;28;44422;-79
2022/10/10 14:09:03;;;;;;;;;;;;;;;;;;5069286;28;44118;-77
2022/10/10 14:11:30;;;;;;;;;;;;;;;;;;5076515;28;44429;-77
2022/10/10 14:13:57;;;;;;;;;;;;;;;;;;5085023;28;44441;-76
2022/10/10 14:16:24;;;;;;;;;;;;;;;;;;5074922;28;45732;-77
2022/10/10 14:18:50;;;;;;;;;;;;;;;;;;5076512;28;45080;-77
2022/10/10 14:21:17;;;;;;;;;;;;;;;;;;5072632;28;44640;-78
2022/10/10 14:23:44;;;;;;;;;;;;;;;;;;5075640;28;44853;-77
2022/10/10 14:26:11;;;;;;;;;;;;;;;;;;5073875;28;44560;-77
2022/10/10 14:28:38;;;;;;;;;;;;;;;;;;5073941;28;43943;-77
2022/10/10 14:31:05;;;;;;;;;;;;;;;;;;5078004;28;43628;-77
2022/10/10 14:33:32;;;;;;;;;;;;;;;;;;5080548;28;45109;-78
2022/10/10 14:35:59;;;;;;;;;;;;;;;;;;5072560;28;43351;-78
2022/10/10 14:38:26;;;;;;;;;;;;;;;;;;5080195;28;44309;-78
2022/10/10 14:40:53;;;;;;;;;;;;;;;;;;5082821;28;44566;-79
2022/10/10 14:43:21;;;;;;;;;;;;;;;;;;5072996;28;45800;-80
2022/10/10 14:45:48;;;;;;;;;;;;;;;;;;5084250;28;43179;-80
2022/10/10 14:48:15;;;;;;;;;;;;;;;;;;5077248;28;45326;-77
2022/10/10 14:50:45;;;;;;;;;;;;;;;;;;5074643;28;43684;-79
2022/10/10 14:53:12;;;;;;;;;;;;;;;;;;5075441;28;43023;-79
2022/10/10 14:55:42;;;;;;;;;;;;;;;;;;5074847;28;45734;-80
2022/10/10 14:58:09;;;;;;;;;;;;;;;;;;5083080;28;44106;-80
2022/10/10 15:00:36;;;;;;;;;;;;;;;;;;5079815;28;42051;-79
2022/10/10 15:03:03;;;;;;;;;;;;;;;;;;5085733;28;43717;-80
2022/10/10 15:05:32;;;;;;;;;;;;;;;;;;5079773;28;43030;-79
2022/10/10 15:07:59;;;;;;;;;;;;;;;;;;5074005;28;44971;-79
2022/10/10 15:10:26;;;;;;;;;;;;;;;;;;5077265;28;43034;-79
2022/10/10 15:12:59;;;;;;;;;;;;;;;;;;5081051;28;44971;-79
2022/10/10 15:15:26;;;;;;;;;;;;;;;;;;5076233;28;44584;-78
2022/10/10 15:17:53;;;;;;;;;;;;;;;;;;5072623;28;42805;-79
2022/10/10 15:20:24;;;;;;;;;;;;;;;;;;5078916;28;44646;-78
2022/10/10 15:22:51;;;;;;;;;;;;;;;;;;5073752;28;45806;-78
2022/10/10 15:25:18;;;;;;;;;;;;;;;;;;5073310;28;44699;-78
2022/10/10 15:27:45;;;;;;;;;;;;;;;;;;5078249;28;45475;-78
2022/10/10 15:30:12;;;;;;;;;;;;;;;;;;5076365;28;44035;-78
2022/10/10 15:32:39;;;;;;;;;;;;;;;;;;5086329;28;44874;-78
2022/10/10 15:35:06;;;;;;;;;;;;;;;;;;5076353;28;44618;-78
2022/10/10 15:37:33;;;;;;;;;;;;;;;;;;5078147;28;43998;-78
2022/10/10 15:40:00;;;;;;;;;;;;;;;;;;5076955;28;43648;-78
2022/10/10 15:42:27;;;;;;;;;;;;;;;;;;5085823;28;44675;-78
2022/10/10 15:44:54;;;;;;;;;;;;;;;;;;5074382;28;45769;-78
2022/10/10 15:47:21;;;;;;;;;;;;;;;;;;5075642;28;43612;-77
2022/10/10 15:49:48;;;;;;;;;;;;;;;;;;5071132;28;43285;-77
2022/10/10 15:52:15;;;;;;;;;;;;;;;;;;5088284;28;44381;-78
2022/10/10 15:54:42;;;;;;;;;;;;;;;;;;5072902;28;44670;-78
2022/10/10 15:57:09;;;;;;;;;;;;;;;;;;5077126;28;44108;-77
2022/10/10 15:59:36;;;;;;;;;;;;;;;;;;5077125;28;44113;-77
2022/10/10 16:02:06;;;;;;;;;;;;;;;;;;5070925;28;43163;-77
2022/10/10 16:04:33;;;;;;;;;;;;;;;;;;5077056;28;43660;-78
2022/10/10 16:07:00;;;;;;;;;;;;;;;;;;5075451;28;43093;-78
2022/10/10 16:09:47;;;;;;;;;;;;;;;;;;5078097;28;19955;-78
2022/10/10 16:12:14;;;;;;;;;;;;;;;;;;5076385;28;44884;-77
2022/10/10 16:14:41;;;;;;;;;;;;;;;;;;5083567;28;43018;-77
2022/10/10 16:17:08;;;;;;;;;;;;;;;;;;5077681;28;45143;-78
2022/10/10 16:19:35;;;;;;;;;;;;;;;;;;5072854;28;40419;-78
2022/10/10 16:22:02;;;;;;;;;;;;;;;;;;5076911;28;45886;-77
2022/10/10 16:24:29;;;;;;;;;;;;;;;;;;5074722;28;44599;-77
2022/10/10 16:26:58;;;;;;;;;;;;;;;;;;5076452;28;43328;-77
2022/10/10 16:29:25;;;;;;;;;;;;;;;;;;5079425;28;44005;-77
2022/10/10 16:31:52;;;;;;;;;;;;;;;;;;5071132;28;45941;-77
2022/10/10 16:34:19;;;;;;;;;;;;;;;;;;5070916;28;44687;-78
2022/10/10 16:36:46;;;;;;;;;;;;;;;;;;5077867;28;45043;-77
2022/10/10 16:39:13;;;;;;;;;;;;;;;;;;5069445;28;44691;-77
2022/10/10 16:41:40;;;;;;;;;;;;;;;;;;5078062;28;44987;-78
2022/10/10 16:44:15;;;;;;;;;;;;;;;;;;5080444;28;43731;-78
2022/10/10 16:46:42;;;;;;;;;;;;;;;;;;5083554;28;43951;-78
2022/10/10 16:49:09;;;;;;;;;;;;;;;;;;5073883;28;43326;-78